Shady Dale, Georgia
Current Conditions -  °F | °C
As of 11:55 AM on Saturday 22 Nov 2014 (Local Time) from KCVC Reporting Station
Clear Clear  
Wind Chill: 13°   Ceiling: Unl
Heat Index: 13°   Visibility: 10mi
Dew Point: -3°   Wind: 8mph
Humidity: 33%   Direction: 100°E
Pressure: 30.43"   Gusts: NA
Location:  33.4°N, 83.59°W
Report Text: KCVC 221655Z AUTO 10007KT 076V136 10SM CLR 13/M03 A3043 RMK AO2
Loading
Personal Weather Stations






























Interactive Weather Map New forecast layout! Learn more

10-Day Weather Forecast

Advertisements
Track Severe Weather on mobile